sensor_id;sensor_type;location;lat;lon;timestamp;P1;durP1;ratioP1;P2;durP2;ratioP2
16669;SDS011;8448;52.034;5.158;2022-11-27T00:00:46;16.03;;;5.80;;
16669;SDS011;8448;52.034;5.158;2022-11-27T00:03:13;18.00;;;6.13;;
16669;SDS011;8448;52.034;5.158;2022-11-27T00:05:50;15.93;;;6.13;;
16669;SDS011;8448;52.034;5.158;2022-11-27T00:08:19;18.80;;;5.80;;
16669;SDS011;8448;52.034;5.158;2022-11-27T00:10:46;13.83;;;6.17;;
16669;SDS011;8448;52.034;5.158;2022-11-27T00:13:14;20.37;;;6.43;;
16669;SDS011;8448;52.034;5.158;2022-11-27T00:15:42;13.87;;;5.43;;
16669;SDS011;8448;52.034;5.158;2022-11-27T00:18:09;14.80;;;5.70;;
16669;SDS011;8448;52.034;5.158;2022-11-27T00:20:37;15.73;;;6.17;;
16669;SDS011;8448;52.034;5.158;2022-11-27T00:23:06;14.90;;;5.67;;
16669;SDS011;8448;52.034;5.158;2022-11-27T00:25:33;16.77;;;5.80;;
16669;SDS011;8448;52.034;5.158;2022-11-27T00:28:01;12.43;;;5.20;;
16669;SDS011;8448;52.034;5.158;2022-11-27T00:30:28;12.03;;;5.13;;
16669;SDS011;8448;52.034;5.158;2022-11-27T00:32:56;14.47;;;5.63;;
16669;SDS011;8448;52.034;5.158;2022-11-27T00:35:24;10.97;;;4.77;;
16669;SDS011;8448;52.034;5.158;2022-11-27T00:37:51;18.13;;;5.40;;
16669;SDS011;8448;52.034;5.158;2022-11-27T00:40:20;15.10;;;5.10;;
16669;SDS011;8448;52.034;5.158;2022-11-27T00:42:48;14.27;;;5.00;;
16669;SDS011;8448;52.034;5.158;2022-11-27T00:45:16;13.77;;;4.90;;
16669;SDS011;8448;52.034;5.158;2022-11-27T00:47:43;11.87;;;5.30;;
16669;SDS011;8448;52.034;5.158;2022-11-27T00:50:11;12.30;;;5.10;;
16669;SDS011;8448;52.034;5.158;2022-11-27T00:52:38;13.90;;;5.30;;
16669;SDS011;8448;52.034;5.158;2022-11-27T00:55:06;18.13;;;5.83;;
16669;SDS011;8448;52.034;5.158;2022-11-27T00:57:35;15.10;;;5.07;;
16669;SDS011;8448;52.034;5.158;2022-11-27T01:00:03;14.93;;;4.63;;
16669;SDS011;8448;52.034;5.158;2022-11-27T01:02:31;16.07;;;4.60;;
16669;SDS011;8448;52.034;5.158;2022-11-27T01:04:59;13.63;;;5.07;;
16669;SDS011;8448;52.034;5.158;2022-11-27T01:07:26;15.20;;;5.10;;
16669;SDS011;8448;52.034;5.158;2022-11-27T01:09:53;10.47;;;4.57;;
16669;SDS011;8448;52.034;5.158;2022-11-27T01:12:21;11.07;;;4.50;;
16669;SDS011;8448;52.034;5.158;2022-11-27T01:14:50;12.67;;;4.70;;
16669;SDS011;8448;52.034;5.158;2022-11-27T01:17:18;13.77;;;4.80;;
16669;SDS011;8448;52.034;5.158;2022-11-27T01:19:48;16.77;;;4.97;;
16669;SDS011;8448;52.034;5.158;2022-11-27T01:22:15;12.80;;;4.33;;
16669;SDS011;8448;52.034;5.158;2022-11-27T01:24:43;13.83;;;4.70;;
16669;SDS011;8448;52.034;5.158;2022-11-27T01:27:10;13.17;;;4.20;;
16669;SDS011;8448;52.034;5.158;2022-11-27T01:29:39;13.53;;;4.47;;
16669;SDS011;8448;52.034;5.158;2022-11-27T01:32:07;9.63;;;4.50;;
16669;SDS011;8448;52.034;5.158;2022-11-27T01:34:35;11.23;;;4.50;;
16669;SDS011;8448;52.034;5.158;2022-11-27T01:37:02;11.97;;;4.60;;
16669;SDS011;8448;52.034;5.158;2022-11-27T01:39:29;12.10;;;4.43;;
16669;SDS011;8448;52.034;5.158;2022-11-27T01:41:57;12.53;;;4.40;;
16669;SDS011;8448;52.034;5.158;2022-11-27T01:44:45;12.67;;;4.33;;
16669;SDS011;8448;52.034;5.158;2022-11-27T01:47:17;12.73;;;4.73;;
16669;SDS011;8448;52.034;5.158;2022-11-27T01:49:51;10.40;;;3.93;;
16669;SDS011;8448;52.034;5.158;2022-11-27T01:52:21;12.13;;;4.13;;
16669;SDS011;8448;52.034;5.158;2022-11-27T01:54:53;15.70;;;4.70;;
16669;SDS011;8448;52.034;5.158;2022-11-27T01:57:23;13.10;;;3.97;;
16669;SDS011;8448;52.034;5.158;2022-11-27T01:59:52;11.20;;;3.97;;
16669;SDS011;8448;52.034;5.158;2022-11-27T02:02:23;15.23;;;4.63;;
16669;SDS011;8448;52.034;5.158;2022-11-27T02:04:50;10.67;;;3.77;;
16669;SDS011;8448;52.034;5.158;2022-11-27T02:07:18;13.10;;;3.77;;
16669;SDS011;8448;52.034;5.158;2022-11-27T02:09:46;10.57;;;3.93;;
16669;SDS011;8448;52.034;5.158;2022-11-27T02:12:14;8.77;;;3.93;;
16669;SDS011;8448;52.034;5.158;2022-11-27T02:14:50;9.13;;;4.00;;
16669;SDS011;8448;52.034;5.158;2022-11-27T02:17:26;9.40;;;3.90;;
16669;SDS011;8448;52.034;5.158;2022-11-27T02:20:01;10.77;;;3.90;;
16669;SDS011;8448;52.034;5.158;2022-11-27T02:22:43;9.00;;;3.60;;
16669;SDS011;8448;52.034;5.158;2022-11-27T02:25:32;8.87;;;3.70;;
16669;SDS011;8448;52.034;5.158;2022-11-27T02:28:15;7.10;;;3.20;;
16669;SDS011;8448;52.034;5.158;2022-11-27T02:30:50;9.20;;;3.60;;
16669;SDS011;8448;52.034;5.158;2022-11-27T02:33:22;6.57;;;3.40;;
16669;SDS011;8448;52.034;5.158;2022-11-27T02:35:50;10.93;;;3.80;;
16669;SDS011;8448;52.034;5.158;2022-11-27T02:38:19;10.67;;;3.47;;
16669;SDS011;8448;52.034;5.158;2022-11-27T02:40:49;8.77;;;3.40;;
16669;SDS011;8448;52.034;5.158;2022-11-27T02:43:19;10.00;;;3.30;;
16669;SDS011;8448;52.034;5.158;2022-11-27T02:45:50;9.63;;;3.27;;
16669;SDS011;8448;52.034;5.158;2022-11-27T02:48:18;9.43;;;3.60;;
16669;SDS011;8448;52.034;5.158;2022-11-27T02:50:49;9.27;;;3.60;;
16669;SDS011;8448;52.034;5.158;2022-11-27T02:53:18;12.27;;;3.57;;
16669;SDS011;8448;52.034;5.158;2022-11-27T02:55:47;9.87;;;3.33;;
16669;SDS011;8448;52.034;5.158;2022-11-27T02:58:16;13.43;;;3.40;;
16669;SDS011;8448;52.034;5.158;2022-11-27T03:00:47;11.13;;;3.43;;
16669;SDS011;8448;52.034;5.158;2022-11-27T03:03:18;11.40;;;3.50;;
16669;SDS011;8448;52.034;5.158;2022-11-27T03:05:49;11.23;;;3.20;;
16669;SDS011;8448;52.034;5.158;2022-11-27T03:08:20;7.07;;;3.20;;
16669;SDS011;8448;52.034;5.158;2022-11-27T03:10:51;8.67;;;3.80;;
16669;SDS011;8448;52.034;5.158;2022-11-27T03:13:22;13.43;;;3.43;;
16669;SDS011;8448;52.034;5.158;2022-11-27T03:15:53;9.20;;;3.23;;
16669;SDS011;8448;52.034;5.158;2022-11-27T03:18:35;9.40;;;3.37;;
16669;SDS011;8448;52.034;5.158;2022-11-27T03:21:07;10.73;;;3.47;;
16669;SDS011;8448;52.034;5.158;2022-11-27T03:23:39;9.03;;;3.43;;
16669;SDS011;8448;52.034;5.158;2022-11-27T03:26:06;10.63;;;3.37;;
16669;SDS011;8448;52.034;5.158;2022-11-27T03:28:34;12.07;;;3.90;;
16669;SDS011;8448;52.034;5.158;2022-11-27T03:31:03;7.80;;;3.13;;
16669;SDS011;8448;52.034;5.158;2022-11-27T03:33:31;8.23;;;3.47;;
16669;SDS011;8448;52.034;5.158;2022-11-27T03:35:58;9.17;;;3.13;;
16669;SDS011;8448;52.034;5.158;2022-11-27T03:38:26;9.73;;;3.50;;
16669;SDS011;8448;52.034;5.158;2022-11-27T03:40:54;8.50;;;3.40;;
16669;SDS011;8448;52.034;5.158;2022-11-27T03:43:25;9.07;;;3.13;;
16669;SDS011;8448;52.034;5.158;2022-11-27T03:45:55;9.60;;;3.67;;
16669;SDS011;8448;52.034;5.158;2022-11-27T03:48:28;8.53;;;3.33;;
16669;SDS011;8448;52.034;5.158;2022-11-27T03:51:00;8.93;;;3.23;;
16669;SDS011;8448;52.034;5.158;2022-11-27T03:53:33;8.47;;;3.90;;
16669;SDS011;8448;52.034;5.158;2022-11-27T03:56:06;8.17;;;3.57;;
16669;SDS011;8448;52.034;5.158;2022-11-27T03:58:40;8.63;;;3.93;;
16669;SDS011;8448;52.034;5.158;2022-11-27T04:01:11;11.80;;;3.70;;
16669;SDS011;8448;52.034;5.158;2022-11-27T04:03:41;10.87;;;4.23;;
16669;SDS011;8448;52.034;5.158;2022-11-27T04:06:09;11.90;;;4.60;;
16669;SDS011;8448;52.034;5.158;2022-11-27T04:08:36;11.83;;;4.70;;
16669;SDS011;8448;52.034;5.158;2022-11-27T04:11:04;16.70;;;5.00;;
16669;SDS011;8448;52.034;5.158;2022-11-27T04:13:32;10.73;;;4.53;;
16669;SDS011;8448;52.034;5.158;2022-11-27T04:16:01;12.50;;;4.97;;
16669;SDS011;8448;52.034;5.158;2022-11-27T04:18:29;13.70;;;4.83;;
16669;SDS011;8448;52.034;5.158;2022-11-27T04:20:57;15.30;;;5.10;;
16669;SDS011;8448;52.034;5.158;2022-11-27T04:23:25;15.83;;;4.70;;
16669;SDS011;8448;52.034;5.158;2022-11-27T04:25:52;11.90;;;4.70;;
16669;SDS011;8448;52.034;5.158;2022-11-27T04:28:19;13.47;;;5.13;;
16669;SDS011;8448;52.034;5.158;2022-11-27T04:30:49;11.53;;;4.83;;
16669;SDS011;8448;52.034;5.158;2022-11-27T04:33:17;11.60;;;4.97;;
16669;SDS011;8448;52.034;5.158;2022-11-27T04:35:45;12.77;;;5.03;;
16669;SDS011;8448;52.034;5.158;2022-11-27T04:38:13;13.90;;;5.57;;
16669;SDS011;8448;52.034;5.158;2022-11-27T04:40:41;14.07;;;5.53;;
16669;SDS011;8448;52.034;5.158;2022-11-27T04:43:08;17.83;;;6.13;;
16669;SDS011;8448;52.034;5.158;2022-11-27T04:45:35;14.23;;;6.03;;
16669;SDS011;8448;52.034;5.158;2022-11-27T04:48:03;12.10;;;4.90;;
16669;SDS011;8448;52.034;5.158;2022-11-27T04:50:31;14.17;;;5.30;;
16669;SDS011;8448;52.034;5.158;2022-11-27T04:52:58;12.53;;;5.43;;
16669;SDS011;8448;52.034;5.158;2022-11-27T04:55:26;11.93;;;5.13;;
16669;SDS011;8448;52.034;5.158;2022-11-27T04:57:54;14.47;;;5.37;;
16669;SDS011;8448;52.034;5.158;2022-11-27T05:00:21;13.27;;;5.53;;
16669;SDS011;8448;52.034;5.158;2022-11-27T05:02:49;16.97;;;5.27;;
16669;SDS011;8448;52.034;5.158;2022-11-27T05:05:16;12.13;;;5.13;;
16669;SDS011;8448;52.034;5.158;2022-11-27T05:07:43;13.45;;;6.10;;
16669;SDS011;8448;52.034;5.158;2022-11-27T05:10:10;12.07;;;5.23;;
16669;SDS011;8448;52.034;5.158;2022-11-27T05:12:39;13.00;;;5.50;;
16669;SDS011;8448;52.034;5.158;2022-11-27T05:15:07;14.37;;;5.60;;
16669;SDS011;8448;52.034;5.158;2022-11-27T05:17:35;13.17;;;5.00;;
16669;SDS011;8448;52.034;5.158;2022-11-27T05:20:02;9.80;;;5.10;;
16669;SDS011;8448;52.034;5.158;2022-11-27T05:22:31;11.50;;;4.90;;
16669;SDS011;8448;52.034;5.158;2022-11-27T05:24:58;9.77;;;5.13;;
16669;SDS011;8448;52.034;5.158;2022-11-27T05:27:25;12.00;;;4.97;;
16669;SDS011;8448;52.034;5.158;2022-11-27T05:29:54;10.50;;;5.00;;
16669;SDS011;8448;52.034;5.158;2022-11-27T05:32:21;15.20;;;5.37;;
16669;SDS011;8448;52.034;5.158;2022-11-27T05:34:49;13.50;;;4.77;;
16669;SDS011;8448;52.034;5.158;2022-11-27T05:37:16;11.10;;;4.30;;
16669;SDS011;8448;52.034;5.158;2022-11-27T05:39:43;12.67;;;5.20;;
16669;SDS011;8448;52.034;5.158;2022-11-27T05:42:10;12.83;;;4.30;;
16669;SDS011;8448;52.034;5.158;2022-11-27T05:44:38;11.63;;;4.90;;
16669;SDS011;8448;52.034;5.158;2022-11-27T05:47:06;8.07;;;4.10;;
16669;SDS011;8448;52.034;5.158;2022-11-27T05:49:34;10.13;;;4.50;;
16669;SDS011;8448;52.034;5.158;2022-11-27T05:52:02;10.57;;;4.50;;
16669;SDS011;8448;52.034;5.158;2022-11-27T05:54:29;11.73;;;5.23;;
16669;SDS011;8448;52.034;5.158;2022-11-27T05:56:57;11.33;;;4.67;;
16669;SDS011;8448;52.034;5.158;2022-11-27T05:59:24;10.47;;;4.43;;
16669;SDS011;8448;52.034;5.158;2022-11-27T06:01:51;9.33;;;4.27;;
16669;SDS011;8448;52.034;5.158;2022-11-27T06:04:20;11.50;;;4.63;;
16669;SDS011;8448;52.034;5.158;2022-11-27T06:06:50;13.17;;;4.57;;
16669;SDS011;8448;52.034;5.158;2022-11-27T06:09:19;10.20;;;4.53;;
16669;SDS011;8448;52.034;5.158;2022-11-27T06:11:47;8.60;;;3.70;;
16669;SDS011;8448;52.034;5.158;2022-11-27T06:14:14;9.98;;;5.35;;
16669;SDS011;8448;52.034;5.158;2022-11-27T06:16:41;8.20;;;4.60;;
16669;SDS011;8448;52.034;5.158;2022-11-27T06:19:08;9.87;;;4.47;;
16669;SDS011;8448;52.034;5.158;2022-11-27T06:21:37;12.77;;;4.60;;
16669;SDS011;8448;52.034;5.158;2022-11-27T06:24:04;8.30;;;4.37;;
16669;SDS011;8448;52.034;5.158;2022-11-27T06:26:32;11.57;;;5.32;;
16669;SDS011;8448;52.034;5.158;2022-11-27T06:28:59;13.17;;;5.10;;
16669;SDS011;8448;52.034;5.158;2022-11-27T06:31:28;7.63;;;4.37;;
16669;SDS011;8448;52.034;5.158;2022-11-27T06:33:56;10.90;;;4.70;;
16669;SDS011;8448;52.034;5.158;2022-11-27T06:36:25;10.00;;;4.63;;
16669;SDS011;8448;52.034;5.158;2022-11-27T06:38:55;10.73;;;4.27;;
16669;SDS011;8448;52.034;5.158;2022-11-27T06:41:22;12.00;;;4.53;;
16669;SDS011;8448;52.034;5.158;2022-11-27T06:43:51;10.07;;;4.10;;
16669;SDS011;8448;52.034;5.158;2022-11-27T06:46:19;9.37;;;4.30;;
16669;SDS011;8448;52.034;5.158;2022-11-27T06:48:48;12.57;;;5.65;;
16669;SDS011;8448;52.034;5.158;2022-11-27T06:51:18;8.20;;;4.77;;
16669;SDS011;8448;52.034;5.158;2022-11-27T06:53:46;11.90;;;4.50;;
16669;SDS011;8448;52.034;5.158;2022-11-27T06:56:18;10.67;;;4.80;;
16669;SDS011;8448;52.034;5.158;2022-11-27T06:58:49;8.77;;;4.87;;
16669;SDS011;8448;52.034;5.158;2022-11-27T07:01:16;11.90;;;4.40;;
16669;SDS011;8448;52.034;5.158;2022-11-27T07:03:44;8.83;;;4.40;;
16669;SDS011;8448;52.034;5.158;2022-11-27T07:06:12;11.83;;;4.40;;
16669;SDS011;8448;52.034;5.158;2022-11-27T07:08:40;11.03;;;4.33;;
16669;SDS011;8448;52.034;5.158;2022-11-27T07:11:09;6.53;;;4.00;;
16669;SDS011;8448;52.034;5.158;2022-11-27T07:13:39;10.00;;;4.53;;
16669;SDS011;8448;52.034;5.158;2022-11-27T07:16:07;14.33;;;6.07;;
16669;SDS011;8448;52.034;5.158;2022-11-27T07:18:36;13.80;;;5.33;;
16669;SDS011;8448;52.034;5.158;2022-11-27T07:21:05;8.63;;;4.60;;
16669;SDS011;8448;52.034;5.158;2022-11-27T07:23:33;11.20;;;4.70;;
16669;SDS011;8448;52.034;5.158;2022-11-27T07:26:03;10.57;;;4.40;;
16669;SDS011;8448;52.034;5.158;2022-11-27T07:28:31;10.67;;;4.13;;
16669;SDS011;8448;52.034;5.158;2022-11-27T07:31:00;13.53;;;5.07;;
16669;SDS011;8448;52.034;5.158;2022-11-27T07:33:28;10.73;;;4.53;;
16669;SDS011;8448;52.034;5.158;2022-11-27T07:35:58;11.80;;;4.30;;
16669;SDS011;8448;52.034;5.158;2022-11-27T07:38:27;9.00;;;4.13;;
16669;SDS011;8448;52.034;5.158;2022-11-27T07:40:54;8.87;;;4.27;;
16669;SDS011;8448;52.034;5.158;2022-11-27T07:43:24;9.03;;;4.07;;
16669;SDS011;8448;52.034;5.158;2022-11-27T07:45:51;8.27;;;4.17;;
16669;SDS011;8448;52.034;5.158;2022-11-27T07:48:20;10.87;;;4.30;;
16669;SDS011;8448;52.034;5.158;2022-11-27T07:50:47;11.50;;;4.70;;
16669;SDS011;8448;52.034;5.158;2022-11-27T07:53:15;9.13;;;4.63;;
16669;SDS011;8448;52.034;5.158;2022-11-27T07:55:42;10.90;;;4.70;;
16669;SDS011;8448;52.034;5.158;2022-11-27T07:58:09;8.30;;;4.30;;
16669;SDS011;8448;52.034;5.158;2022-11-27T08:00:36;10.23;;;4.70;;
16669;SDS011;8448;52.034;5.158;2022-11-27T08:03:04;12.37;;;4.90;;
16669;SDS011;8448;52.034;5.158;2022-11-27T08:05:33;8.10;;;4.40;;
16669;SDS011;8448;52.034;5.158;2022-11-27T08:08:01;10.30;;;4.27;;
16669;SDS011;8448;52.034;5.158;2022-11-27T08:10:29;9.10;;;3.93;;
16669;SDS011;8448;52.034;5.158;2022-11-27T08:12:56;13.77;;;4.20;;
16669;SDS011;8448;52.034;5.158;2022-11-27T08:15:24;15.47;;;4.77;;
16669;SDS011;8448;52.034;5.158;2022-11-27T08:17:51;9.83;;;4.53;;
16669;SDS011;8448;52.034;5.158;2022-11-27T08:20:18;8.90;;;4.53;;
16669;SDS011;8448;52.034;5.158;2022-11-27T08:22:47;10.77;;;4.40;;
16669;SDS011;8448;52.034;5.158;2022-11-27T08:25:15;11.73;;;4.87;;
16669;SDS011;8448;52.034;5.158;2022-11-27T08:27:42;9.07;;;4.70;;
16669;SDS011;8448;52.034;5.158;2022-11-27T08:30:12;7.63;;;4.50;;
16669;SDS011;8448;52.034;5.158;2022-11-27T08:32:40;11.87;;;5.27;;
16669;SDS011;8448;52.034;5.158;2022-11-27T08:35:08;13.07;;;5.17;;
16669;SDS011;8448;52.034;5.158;2022-11-27T08:37:35;9.60;;;4.80;;
16669;SDS011;8448;52.034;5.158;2022-11-27T08:40:05;11.80;;;4.67;;
16669;SDS011;8448;52.034;5.158;2022-11-27T08:42:33;12.53;;;5.07;;
16669;SDS011;8448;52.034;5.158;2022-11-27T08:45:01;14.33;;;5.00;;
16669;SDS011;8448;52.034;5.158;2022-11-27T08:47:28;15.47;;;5.53;;
16669;SDS011;8448;52.034;5.158;2022-11-27T08:49:56;11.17;;;4.90;;
16669;SDS011;8448;52.034;5.158;2022-11-27T08:52:23;11.00;;;4.80;;
16669;SDS011;8448;52.034;5.158;2022-11-27T08:54:51;12.13;;;5.00;;
16669;SDS011;8448;52.034;5.158;2022-11-27T08:57:20;9.90;;;5.10;;
16669;SDS011;8448;52.034;5.158;2022-11-27T08:59:47;10.37;;;5.33;;
16669;SDS011;8448;52.034;5.158;2022-11-27T09:02:14;10.40;;;5.20;;
16669;SDS011;8448;52.034;5.158;2022-11-27T09:04:41;12.53;;;5.30;;
16669;SDS011;8448;52.034;5.158;2022-11-27T09:07:09;10.77;;;5.17;;
16669;SDS011;8448;52.034;5.158;2022-11-27T09:09:38;8.90;;;4.60;;
16669;SDS011;8448;52.034;5.158;2022-11-27T09:12:06;11.63;;;5.30;;
16669;SDS011;8448;52.034;5.158;2022-11-27T09:14:35;11.70;;;4.93;;
16669;SDS011;8448;52.034;5.158;2022-11-27T09:17:02;10.33;;;5.20;;
16669;SDS011;8448;52.034;5.158;2022-11-27T09:19:30;10.03;;;4.93;;
16669;SDS011;8448;52.034;5.158;2022-11-27T09:21:57;13.10;;;5.17;;
16669;SDS011;8448;52.034;5.158;2022-11-27T09:24:24;10.20;;;4.53;;
16669;SDS011;8448;52.034;5.158;2022-11-27T09:26:52;10.07;;;4.93;;
16669;SDS011;8448;52.034;5.158;2022-11-27T09:29:19;10.17;;;4.77;;
16669;SDS011;8448;52.034;5.158;2022-11-27T09:31:48;9.70;;;4.80;;
16669;SDS011;8448;52.034;5.158;2022-11-27T09:34:15;11.03;;;5.07;;
16669;SDS011;8448;52.034;5.158;2022-11-27T09:36:43;11.77;;;4.90;;
16669;SDS011;8448;52.034;5.158;2022-11-27T09:39:10;13.13;;;5.30;;
16669;SDS011;8448;52.034;5.158;2022-11-27T09:41:41;10.88;;;5.55;;
16669;SDS011;8448;52.034;5.158;2022-11-27T09:46:57;9.37;;;5.20;;
16669;SDS011;8448;52.034;5.158;2022-11-27T09:49:28;12.77;;;5.30;;
16669;SDS011;8448;52.034;5.158;2022-11-27T09:52:01;9.50;;;4.77;;
16669;SDS011;8448;52.034;5.158;2022-11-27T09:54:32;18.35;;;6.07;;
16669;SDS011;8448;52.034;5.158;2022-11-27T09:57:01;21.73;;;5.90;;
16669;SDS011;8448;52.034;5.158;2022-11-27T09:59:31;11.47;;;5.07;;
16669;SDS011;8448;52.034;5.158;2022-11-27T10:02:08;12.60;;;4.87;;
16669;SDS011;8448;52.034;5.158;2022-11-27T10:04:40;10.13;;;4.83;;
16669;SDS011;8448;52.034;5.158;2022-11-27T10:07:11;14.67;;;5.10;;
16669;SDS011;8448;52.034;5.158;2022-11-27T10:09:48;10.10;;;5.23;;
16669;SDS011;8448;52.034;5.158;2022-11-27T10:12:21;9.87;;;4.60;;
16669;SDS011;8448;52.034;5.158;2022-11-27T10:14:57;10.27;;;5.07;;
16669;SDS011;8448;52.034;5.158;2022-11-27T10:17:31;11.10;;;4.80;;
16669;SDS011;8448;52.034;5.158;2022-11-27T10:20:02;13.83;;;5.17;;
16669;SDS011;8448;52.034;5.158;2022-11-27T10:22:41;10.80;;;5.10;;
16669;SDS011;8448;52.034;5.158;2022-11-27T10:25:13;12.50;;;5.00;;
16669;SDS011;8448;52.034;5.158;2022-11-27T10:27:44;10.13;;;5.40;;
16669;SDS011;8448;52.034;5.158;2022-11-27T10:30:22;11.82;;;5.57;;
16669;SDS011;8448;52.034;5.158;2022-11-27T10:32:51;11.23;;;6.00;;
16669;SDS011;8448;52.034;5.158;2022-11-27T10:35:22;13.10;;;6.70;;
16669;SDS011;8448;52.034;5.158;2022-11-27T10:37:51;11.48;;;6.07;;
16669;SDS011;8448;52.034;5.158;2022-11-27T10:40:22;13.17;;;6.70;;
16669;SDS011;8448;52.034;5.158;2022-11-27T10:42:54;28.13;;;14.77;;
16669;SDS011;8448;52.034;5.158;2022-11-27T10:45:27;11.95;;;7.75;;
16669;SDS011;8448;52.034;5.158;2022-11-27T10:48:04;9.17;;;5.77;;
16669;SDS011;8448;52.034;5.158;2022-11-27T10:50:32;29.10;;;9.53;;
16669;SDS011;8448;52.034;5.158;2022-11-27T10:52:59;22.53;;;10.93;;
16669;SDS011;8448;52.034;5.158;2022-11-27T10:55:33;10.93;;;4.93;;
16669;SDS011;8448;52.034;5.158;2022-11-27T10:58:07;9.73;;;5.27;;
16669;SDS011;8448;52.034;5.158;2022-11-27T11:00:41;9.50;;;4.97;;
16669;SDS011;8448;52.034;5.158;2022-11-27T11:03:14;10.03;;;5.33;;
16669;SDS011;8448;52.034;5.158;2022-11-27T11:05:52;11.13;;;5.63;;
16669;SDS011;8448;52.034;5.158;2022-11-27T11:08:21;9.53;;;5.70;;
16669;SDS011;8448;52.034;5.158;2022-11-27T11:10:51;9.40;;;5.27;;
16669;SDS011;8448;52.034;5.158;2022-11-27T11:13:20;10.60;;;5.50;;
16669;SDS011;8448;52.034;5.158;2022-11-27T11:15:52;9.20;;;5.43;;
16669;SDS011;8448;52.034;5.158;2022-11-27T11:18:23;11.43;;;6.20;;
16669;SDS011;8448;52.034;5.158;2022-11-27T11:20:52;11.77;;;5.70;;
16669;SDS011;8448;52.034;5.158;2022-11-27T11:23:28;11.13;;;5.77;;
16669;SDS011;8448;52.034;5.158;2022-11-27T11:25:58;11.43;;;5.03;;
16669;SDS011;8448;52.034;5.158;2022-11-27T11:28:28;10.23;;;5.13;;
16669;SDS011;8448;52.034;5.158;2022-11-27T11:30:57;11.10;;;5.40;;
16669;SDS011;8448;52.034;5.158;2022-11-27T11:33:28;11.23;;;5.33;;
16669;SDS011;8448;52.034;5.158;2022-11-27T11:35:59;9.73;;;5.30;;
16669;SDS011;8448;52.034;5.158;2022-11-27T11:38:32;14.57;;;5.47;;
16669;SDS011;8448;52.034;5.158;2022-11-27T11:41:01;10.30;;;5.70;;
16669;SDS011;8448;52.034;5.158;2022-11-27T11:43:31;13.47;;;5.50;;
16669;SDS011;8448;52.034;5.158;2022-11-27T11:46:07;14.63;;;6.47;;
16669;SDS011;8448;52.034;5.158;2022-11-27T11:48:55;12.27;;;5.47;;
16669;SDS011;8448;52.034;5.158;2022-11-27T11:51:29;9.40;;;5.40;;
16669;SDS011;8448;52.034;5.158;2022-11-27T11:54:09;11.10;;;5.20;;
16669;SDS011;8448;52.034;5.158;2022-11-27T11:56:44;10.37;;;5.50;;
16669;SDS011;8448;52.034;5.158;2022-11-27T11:59:18;12.93;;;5.97;;
16669;SDS011;8448;52.034;5.158;2022-11-27T12:01:51;9.87;;;6.07;;
16669;SDS011;8448;52.034;5.158;2022-11-27T12:04:37;12.98;;;8.68;;
16669;SDS011;8448;52.034;5.158;2022-11-27T12:07:18;12.80;;;5.23;;
16669;SDS011;8448;52.034;5.158;2022-11-27T12:09:52;11.33;;;5.97;;
16669;SDS011;8448;52.034;5.158;2022-11-27T12:12:27;9.43;;;5.63;;
16669;SDS011;8448;52.034;5.158;2022-11-27T12:15:01;8.33;;;5.20;;
16669;SDS011;8448;52.034;5.158;2022-11-27T12:17:35;11.00;;;5.67;;
16669;SDS011;8448;52.034;5.158;2022-11-27T12:20:13;12.77;;;6.30;;
16669;SDS011;8448;52.034;5.158;2022-11-27T12:22:47;12.87;;;8.07;;
16669;SDS011;8448;52.034;5.158;2022-11-27T12:25:36;9.50;;;5.73;;
16669;SDS011;8448;52.034;5.158;2022-11-27T12:28:10;11.53;;;7.13;;
16669;SDS011;8448;52.034;5.158;2022-11-27T12:30:46;12.27;;;5.87;;
16669;SDS011;8448;52.034;5.158;2022-11-27T12:33:23;10.73;;;5.97;;
16669;SDS011;8448;52.034;5.158;2022-11-27T12:36:02;11.53;;;6.97;;
16669;SDS011;8448;52.034;5.158;2022-11-27T12:38:37;11.13;;;7.00;;
16669;SDS011;8448;52.034;5.158;2022-11-27T12:41:17;11.13;;;6.17;;
16669;SDS011;8448;52.034;5.158;2022-11-27T12:43:52;8.80;;;6.00;;
16669;SDS011;8448;52.034;5.158;2022-11-27T12:46:25;11.83;;;6.37;;
16669;SDS011;8448;52.034;5.158;2022-11-27T12:48:57;13.47;;;6.70;;
16669;SDS011;8448;52.034;5.158;2022-11-27T12:51:28;9.17;;;5.73;;
16669;SDS011;8448;52.034;5.158;2022-11-27T12:53:57;11.20;;;6.90;;
16669;SDS011;8448;52.034;5.158;2022-11-27T12:56:27;10.87;;;6.57;;
16669;SDS011;8448;52.034;5.158;2022-11-27T12:59:01;12.20;;;6.20;;
16669;SDS011;8448;52.034;5.158;2022-11-27T13:01:32;14.47;;;6.20;;
16669;SDS011;8448;52.034;5.158;2022-11-27T13:04:03;13.83;;;6.83;;
16669;SDS011;8448;52.034;5.158;2022-11-27T13:06:39;10.73;;;6.80;;
16669;SDS011;8448;52.034;5.158;2022-11-27T13:09:12;12.27;;;6.60;;
16669;SDS011;8448;52.034;5.158;2022-11-27T13:11:41;14.80;;;7.10;;
16669;SDS011;8448;52.034;5.158;2022-11-27T13:14:10;10.90;;;6.63;;
16669;SDS011;8448;52.034;5.158;2022-11-27T13:16:40;11.30;;;7.33;;
16669;SDS011;8448;52.034;5.158;2022-11-27T13:19:21;12.97;;;7.40;;
16669;SDS011;8448;52.034;5.158;2022-11-27T13:21:52;12.00;;;6.77;;
16669;SDS011;8448;52.034;5.158;2022-11-27T13:24:20;10.93;;;6.63;;
16669;SDS011;8448;52.034;5.158;2022-11-27T13:26:52;8.83;;;5.37;;
16669;SDS011;8448;52.034;5.158;2022-11-27T13:29:26;11.63;;;5.30;;
16669;SDS011;8448;52.034;5.158;2022-11-27T13:31:56;8.87;;;5.07;;
16669;SDS011;8448;52.034;5.158;2022-11-27T13:34:25;8.97;;;4.80;;
16669;SDS011;8448;52.034;5.158;2022-11-27T13:36:55;7.70;;;5.03;;
16669;SDS011;8448;52.034;5.158;2022-11-27T13:39:26;9.43;;;5.67;;
16669;SDS011;8448;52.034;5.158;2022-11-27T13:41:58;8.80;;;4.90;;
16669;SDS011;8448;52.034;5.158;2022-11-27T13:44:31;10.60;;;5.80;;
16669;SDS011;8448;52.034;5.158;2022-11-27T13:47:04;8.30;;;5.63;;
16669;SDS011;8448;52.034;5.158;2022-11-27T13:49:34;11.17;;;6.30;;
16669;SDS011;8448;52.034;5.158;2022-11-27T13:52:08;10.97;;;6.03;;
16669;SDS011;8448;52.034;5.158;2022-11-27T13:54:37;11.83;;;6.43;;
16669;SDS011;8448;52.034;5.158;2022-11-27T13:57:09;9.17;;;6.07;;
16669;SDS011;8448;52.034;5.158;2022-11-27T13:59:37;11.27;;;6.33;;
16669;SDS011;8448;52.034;5.158;2022-11-27T14:02:05;10.73;;;6.47;;
16669;SDS011;8448;52.034;5.158;2022-11-27T14:04:33;11.23;;;6.50;;
16669;SDS011;8448;52.034;5.158;2022-11-27T14:07:01;9.83;;;6.47;;
16669;SDS011;8448;52.034;5.158;2022-11-27T14:09:33;13.13;;;7.50;;
16669;SDS011;8448;52.034;5.158;2022-11-27T14:12:11;10.80;;;6.60;;
16669;SDS011;8448;52.034;5.158;2022-11-27T14:14:40;10.57;;;6.47;;
16669;SDS011;8448;52.034;5.158;2022-11-27T14:17:20;11.90;;;6.50;;
16669;SDS011;8448;52.034;5.158;2022-11-27T14:19:57;12.17;;;7.33;;
16669;SDS011;8448;52.034;5.158;2022-11-27T14:22:33;13.33;;;6.77;;
16669;SDS011;8448;52.034;5.158;2022-11-27T14:25:16;14.33;;;6.97;;
16669;SDS011;8448;52.034;5.158;2022-11-27T14:27:46;13.20;;;7.17;;
16669;SDS011;8448;52.034;5.158;2022-11-27T14:30:20;11.53;;;6.90;;
16669;SDS011;8448;52.034;5.158;2022-11-27T14:32:50;14.13;;;9.93;;
16669;SDS011;8448;52.034;5.158;2022-11-27T14:35:18;15.97;;;11.33;;
16669;SDS011;8448;52.034;5.158;2022-11-27T14:37:46;16.07;;;10.87;;
16669;SDS011;8448;52.034;5.158;2022-11-27T14:40:14;17.27;;;9.40;;
16669;SDS011;8448;52.034;5.158;2022-11-27T14:42:46;15.20;;;9.87;;
16669;SDS011;8448;52.034;5.158;2022-11-27T14:45:14;17.63;;;9.93;;
16669;SDS011;8448;52.034;5.158;2022-11-27T14:47:45;16.20;;;10.37;;
16669;SDS011;8448;52.034;5.158;2022-11-27T14:50:14;18.50;;;11.03;;
16669;SDS011;8448;52.034;5.158;2022-11-27T14:52:42;15.40;;;10.27;;
16669;SDS011;8448;52.034;5.158;2022-11-27T14:55:12;15.40;;;9.77;;
16669;SDS011;8448;52.034;5.158;2022-11-27T14:57:40;17.10;;;10.17;;
16669;SDS011;8448;52.034;5.158;2022-11-27T15:00:17;16.40;;;9.40;;
16669;SDS011;8448;52.034;5.158;2022-11-27T15:02:46;15.33;;;9.70;;
16669;SDS011;8448;52.034;5.158;2022-11-27T15:05:18;15.20;;;9.60;;
16669;SDS011;8448;52.034;5.158;2022-11-27T15:07:47;13.73;;;9.40;;
16669;SDS011;8448;52.034;5.158;2022-11-27T15:10:22;17.90;;;10.70;;